createdAt,value
2022-10-18T00:00:01.800Z,100.00
2022-10-18T00:02:31.393Z,100.00
2022-10-18T00:04:58.041Z,100.00
2022-10-18T00:07:24.671Z,100.00
2022-10-18T00:09:51.317Z,100.00
2022-10-18T00:12:17.850Z,100.00
2022-10-18T00:14:44.443Z,100.00
2022-10-18T00:17:11.030Z,100.00
2022-10-18T00:19:37.605Z,100.00
2022-10-18T00:22:04.289Z,100.00
2022-10-18T00:24:30.881Z,100.00
2022-10-18T00:26:57.440Z,100.00
2022-10-18T00:29:24.051Z,100.00
2022-10-18T00:31:50.603Z,100.00
2022-10-18T00:34:17.209Z,100.00
2022-10-18T00:36:44.711Z,100.00
2022-10-18T00:39:19.498Z,100.00
2022-10-18T00:41:46.790Z,100.00
2022-10-18T00:44:13.303Z,100.00
2022-10-18T00:46:42.838Z,100.00
2022-10-18T00:49:16.504Z,100.00
2022-10-18T00:51:46.662Z,100.00
2022-10-18T00:54:16.356Z,100.00
2022-10-18T00:56:44.861Z,100.00
2022-10-18T00:59:14.486Z,100.00
2022-10-18T01:01:41.118Z,100.00
2022-10-18T01:04:08.089Z,100.00
2022-10-18T01:06:43.812Z,100.00
2022-10-18T01:09:22.493Z,100.00
2022-10-18T01:12:05.848Z,100.00
2022-10-18T01:14:54.151Z,100.00
2022-10-18T01:17:32.176Z,100.00
2022-10-18T01:20:17.312Z,100.00
2022-10-18T01:22:58.897Z,100.00
2022-10-18T01:26:00.804Z,100.00
2022-10-18T01:28:35.435Z,100.00
2022-10-18T01:31:07.092Z,100.00
2022-10-18T01:33:40.839Z,100.00
2022-10-18T01:36:26.022Z,100.00
2022-10-18T01:38:56.614Z,100.00
2022-10-18T01:41:25.161Z,100.00
2022-10-18T01:43:57.534Z,100.00
2022-10-18T01:46:26.179Z,100.00
2022-10-18T01:48:54.817Z,100.00
2022-10-18T01:51:30.088Z,100.00
2022-10-18T01:53:57.585Z,100.00
2022-10-18T01:56:51.928Z,100.00
2022-10-18T01:59:33.526Z,100.00
2022-10-18T02:02:17.793Z,100.00
2022-10-18T02:04:54.731Z,100.00
2022-10-18T02:08:19.265Z,100.00
2022-10-18T02:10:54.612Z,100.00
2022-10-18T02:13:23.619Z,100.00
2022-10-18T02:15:54.888Z,100.00
2022-10-18T02:18:28.243Z,100.00
2022-10-18T02:20:55.165Z,100.00
2022-10-18T02:23:25.204Z,100.00
2022-10-18T02:25:53.368Z,100.00
2022-10-18T02:28:20.554Z,100.00
2022-10-18T02:31:02.697Z,100.00
2022-10-18T02:33:52.850Z,100.00
2022-10-18T02:36:28.217Z,100.00
2022-10-18T02:39:00.429Z,100.00
2022-10-18T02:41:28.124Z,100.00
2022-10-18T02:43:54.740Z,100.00
2022-10-18T02:46:21.390Z,100.00
2022-10-18T02:48:48.553Z,100.00
2022-10-18T02:51:15.707Z,100.00
2022-10-18T02:53:42.338Z,100.00
2022-10-18T02:56:09.208Z,100.00
2022-10-18T02:58:35.800Z,100.00
2022-10-18T03:01:02.463Z,100.00
2022-10-18T03:03:29.023Z,100.00
2022-10-18T03:05:55.610Z,100.00
2022-10-18T03:08:22.763Z,100.00
2022-10-18T03:10:49.461Z,100.00
2022-10-18T03:13:16.260Z,100.00
2022-10-18T03:15:42.967Z,100.00
2022-10-18T03:18:09.804Z,100.00
2022-10-18T03:20:36.729Z,100.00
2022-10-18T03:23:03.635Z,100.00
2022-10-18T03:25:30.212Z,100.00
2022-10-18T03:27:56.789Z,100.00
2022-10-18T03:30:23.333Z,100.00
2022-10-18T03:32:50.121Z,100.00
2022-10-18T03:35:16.814Z,100.00
2022-10-18T03:37:43.395Z,100.00
2022-10-18T03:40:10.190Z,100.00
2022-10-18T03:42:36.807Z,100.00
2022-10-18T03:45:03.881Z,100.00
2022-10-18T03:47:30.471Z,100.00
2022-10-18T03:49:57.489Z,100.00
2022-10-18T03:52:24.387Z,100.00
2022-10-18T03:54:50.998Z,100.00
2022-10-18T03:57:17.682Z,100.00
2022-10-18T03:59:44.293Z,100.00
2022-10-18T04:02:10.902Z,100.00
2022-10-18T04:04:37.442Z,100.00
2022-10-18T04:07:04.107Z,100.00
2022-10-18T04:09:30.666Z,100.00
2022-10-18T04:11:57.326Z,100.00
2022-10-18T04:14:23.894Z,100.00
2022-10-18T04:16:50.552Z,100.00
2022-10-18T04:19:17.603Z,100.00
2022-10-18T04:21:44.201Z,100.00
2022-10-18T04:24:18.039Z,100.00
2022-10-18T04:26:44.702Z,100.00
2022-10-18T04:29:11.680Z,100.00
2022-10-18T04:31:38.299Z,100.00
2022-10-18T04:34:04.970Z,100.00
2022-10-18T04:36:31.661Z,100.00
2022-10-18T04:38:58.291Z,100.00
2022-10-18T04:41:24.876Z,100.00
2022-10-18T04:43:51.548Z,100.00
2022-10-18T04:46:18.117Z,100.00
2022-10-18T04:48:44.699Z,100.00
2022-10-18T04:51:11.259Z,100.00
2022-10-18T04:53:37.862Z,100.00
2022-10-18T04:56:04.595Z,100.00
2022-10-18T04:58:31.326Z,100.00
2022-10-18T05:00:57.883Z,100.00
2022-10-18T05:03:24.493Z,100.00
2022-10-18T05:06:01.277Z,100.00
2022-10-18T05:08:29.361Z,100.00
2022-10-18T05:10:56.063Z,100.00
2022-10-18T05:13:22.689Z,100.00
2022-10-18T05:15:49.254Z,100.00
2022-10-18T05:18:15.916Z,100.00
2022-10-18T05:20:42.528Z,100.00
2022-10-18T05:23:10.895Z,100.00
2022-10-18T05:25:42.223Z,100.00
2022-10-18T05:28:27.153Z,100.00
2022-10-18T05:30:56.311Z,100.00
2022-10-18T05:33:22.886Z,100.00
2022-10-18T05:35:49.495Z,100.00
2022-10-18T05:38:16.089Z,100.00
2022-10-18T05:40:42.688Z,100.00
2022-10-18T05:43:09.272Z,100.00
2022-10-18T05:45:35.805Z,100.00
2022-10-18T05:48:02.372Z,100.00
2022-10-18T05:50:29.105Z,100.00
2022-10-18T05:53:02.760Z,100.00
2022-10-18T05:55:38.837Z,100.00
2022-10-18T05:58:05.795Z,100.00
2022-10-18T06:00:32.514Z,100.00
2022-10-18T06:03:00.370Z,100.00
2022-10-18T06:05:28.064Z,100.00
2022-10-18T06:07:56.440Z,100.00
2022-10-18T06:10:23.235Z,100.00
2022-10-18T06:12:49.815Z,100.00
2022-10-18T06:15:16.552Z,100.00
2022-10-18T06:17:43.123Z,100.00
2022-10-18T06:20:10.405Z,100.00
2022-10-18T06:22:36.983Z,100.00
2022-10-18T06:25:03.652Z,100.00
2022-10-18T06:27:31.875Z,100.00
2022-10-18T06:29:58.854Z,100.00
2022-10-18T06:32:25.451Z,100.00
2022-10-18T06:34:52.057Z,100.00
2022-10-18T06:37:18.632Z,100.00
2022-10-18T06:39:45.214Z,100.00
2022-10-18T06:42:11.870Z,100.00
2022-10-18T06:44:38.474Z,100.00
2022-10-18T06:47:05.080Z,100.00
2022-10-18T06:49:31.688Z,100.00
2022-10-18T06:51:58.245Z,100.00
2022-10-18T06:54:24.851Z,100.00
2022-10-18T06:56:51.437Z,100.00
2022-10-18T06:59:18.289Z,100.00
2022-10-18T07:01:44.987Z,100.00
2022-10-18T07:04:11.629Z,100.00
2022-10-18T07:06:38.178Z,100.00
2022-10-18T07:09:04.805Z,100.00
2022-10-18T07:11:31.492Z,100.00
2022-10-18T07:14:04.155Z,100.00
2022-10-18T07:16:32.435Z,100.00
2022-10-18T07:18:59.022Z,100.00
2022-10-18T07:21:26.839Z,100.00
2022-10-18T07:23:53.608Z,100.00
2022-10-18T07:26:29.796Z,100.00
2022-10-18T07:29:09.541Z,100.00
2022-10-18T07:31:38.411Z,100.00
2022-10-18T07:34:06.026Z,100.00
2022-10-18T07:36:32.642Z,100.00
2022-10-18T07:38:59.725Z,100.00
2022-10-18T07:41:26.631Z,100.00
2022-10-18T07:43:54.307Z,100.00
2022-10-18T07:46:22.404Z,100.00
2022-10-18T07:48:49.897Z,100.00
2022-10-18T07:51:16.955Z,100.00
2022-10-18T07:53:43.945Z,100.00
2022-10-18T07:56:16.985Z,100.00
2022-10-18T07:58:48.954Z,100.00
2022-10-18T08:01:15.715Z,100.00
2022-10-18T08:03:43.144Z,100.00
2022-10-18T08:06:12.858Z,100.00
2022-10-18T08:08:40.542Z,100.00
2022-10-18T08:11:16.268Z,100.00
2022-10-18T08:13:43.371Z,100.00
2022-10-18T08:16:12.934Z,100.00
2022-10-18T08:18:40.181Z,100.00
2022-10-18T08:21:08.993Z,100.00
2022-10-18T08:23:36.319Z,100.00
2022-10-18T08:26:05.423Z,100.00
2022-10-18T08:28:32.524Z,100.00
2022-10-18T08:31:03.387Z,100.00
2022-10-18T08:33:29.979Z,100.00
2022-10-18T08:35:58.187Z,100.00
2022-10-18T08:38:24.897Z,100.00
2022-10-18T08:40:52.249Z,100.00
2022-10-18T08:43:46.427Z,100.00
2022-10-18T08:46:14.521Z,100.00
2022-10-18T08:48:45.202Z,100.00
2022-10-18T08:51:30.267Z,100.00
2022-10-18T08:54:04.496Z,100.00
2022-10-18T08:56:33.514Z,100.00
2022-10-18T08:59:03.779Z,100.00
2022-10-18T09:02:02.523Z,100.00
2022-10-18T09:04:51.047Z,100.00
2022-10-18T09:07:53.415Z,100.00
2022-10-18T09:10:38.878Z,100.00
2022-10-18T09:13:47.323Z,100.00
2022-10-18T09:17:04.985Z,100.00
2022-10-18T09:20:07.302Z,100.00
2022-10-18T09:22:45.739Z,100.00
2022-10-18T09:25:18.343Z,100.00
2022-10-18T09:27:44.851Z,100.00
2022-10-18T09:30:26.582Z,100.00
2022-10-18T09:32:53.089Z,100.00
2022-10-18T09:35:27.499Z,100.00
2022-10-18T09:38:03.436Z,100.00
2022-10-18T09:40:36.315Z,100.00
2022-10-18T09:43:22.171Z,100.00
2022-10-18T09:45:50.255Z,100.00
2022-10-18T09:48:33.395Z,100.00
2022-10-18T09:51:23.506Z,100.00
2022-10-18T09:54:05.214Z,100.00
2022-10-18T09:56:51.478Z,100.00
2022-10-18T09:59:23.913Z,100.00
2022-10-18T10:01:50.513Z,100.00
2022-10-18T10:04:17.061Z,100.00
2022-10-18T10:06:50.783Z,100.00
2022-10-18T10:09:21.437Z,100.00
2022-10-18T10:11:50.249Z,100.00
2022-10-18T10:14:43.729Z,100.00
2022-10-18T10:17:26.623Z,100.00
2022-10-18T10:20:17.136Z,100.00
2022-10-18T10:22:47.195Z,100.00
2022-10-18T10:25:33.269Z,100.00
2022-10-18T10:28:07.058Z,100.00
2022-10-18T10:30:38.493Z,100.00
2022-10-18T10:33:06.784Z,100.00
2022-10-18T10:35:55.549Z,100.00
2022-10-18T10:38:27.345Z,100.00
2022-10-18T10:40:54.371Z,100.00
2022-10-18T10:43:38.211Z,100.00
2022-10-18T10:46:15.198Z,100.00
2022-10-18T10:48:57.051Z,100.00
2022-10-18T10:51:39.077Z,100.00
2022-10-18T10:54:21.829Z,100.00
2022-10-18T10:56:56.701Z,99.57
2022-10-18T10:59:26.443Z,97.85
2022-10-18T11:02:35.987Z,95.35
2022-10-18T11:05:41.892Z,94.71
2022-10-18T11:08:11.302Z,93.39
2022-10-18T11:11:09.508Z,91.65
2022-10-18T11:14:20.601Z,89.80
2022-10-18T11:16:48.822Z,89.36
2022-10-18T11:19:55.518Z,86.95
2022-10-18T11:22:25.551Z,89.44
2022-10-18T11:24:52.166Z,91.43
2022-10-18T11:27:54.345Z,93.47
2022-10-18T11:30:45.736Z,88.85
2022-10-18T11:33:50.163Z,86.48
2022-10-18T11:38:55.797Z,87.05
2022-10-18T11:41:39.934Z,87.66
2022-10-18T11:44:37.533Z,85.24
2022-10-18T11:47:37.061Z,93.20
2022-10-18T11:50:27.732Z,94.87
2022-10-18T11:53:25.229Z,97.09
2022-10-18T11:56:13.548Z,95.46
2022-10-18T11:58:57.515Z,94.80
2022-10-18T12:01:30.662Z,92.54
2022-10-18T12:04:17.907Z,91.45
2022-10-18T12:06:48.677Z,92.46
2022-10-18T12:09:24.226Z,90.84
2022-10-18T12:11:57.646Z,90.40
2022-10-18T12:14:30.943Z,87.62
2022-10-18T12:17:35.534Z,90.00
2022-10-18T12:19:51.876Z,89.58
2022-10-18T12:22:38.366Z,90.31
2022-10-18T12:25:10.298Z,88.33
2022-10-18T12:27:45.877Z,88.80
2022-10-18T12:30:47.235Z,85.61
2022-10-18T12:33:28.285Z,81.81
2022-10-18T12:36:13.847Z,79.53
2022-10-18T12:38:43.748Z,81.91
2022-10-18T12:41:23.371Z,82.13
2022-10-18T12:43:54.761Z,85.49
2022-10-18T12:46:21.493Z,86.43
2022-10-18T12:49:03.225Z,86.91
2022-10-18T12:51:29.966Z,88.28
2022-10-18T12:54:11.606Z,87.33
2022-10-18T12:56:43.356Z,86.15
2022-10-18T12:59:16.009Z,84.75
2022-10-18T13:01:51.789Z,83.18
2022-10-18T13:04:27.662Z,82.27
2022-10-18T13:06:59.952Z,82.88
2022-10-18T13:09:28.757Z,81.65
2022-10-18T13:12:18.669Z,82.38
2022-10-18T13:15:05.890Z,80.14
2022-10-18T13:17:42.699Z,81.80
2022-10-18T13:20:26.029Z,81.95
2022-10-18T13:22:56.463Z,82.43
2022-10-18T13:25:31.874Z,83.31
2022-10-18T13:28:30.963Z,80.81
2022-10-18T13:31:28.482Z,84.05
2022-10-18T13:33:55.404Z,84.61
2022-10-18T13:36:25.298Z,84.49
2022-10-18T13:39:03.767Z,83.66
2022-10-18T13:41:35.455Z,84.59
2022-10-18T13:44:30.395Z,85.29
2022-10-18T13:46:56.913Z,83.47
2022-10-18T13:49:38.803Z,82.17
2022-10-18T13:52:27.919Z,83.15
2022-10-18T13:55:20.417Z,82.26
2022-10-18T13:58:07.856Z,82.32
2022-10-18T14:00:52.655Z,82.88
2022-10-18T14:03:58.687Z,84.06
2022-10-18T14:06:32.922Z,82.83
2022-10-18T14:09:13.938Z,83.88
2022-10-18T14:11:56.662Z,83.59
2022-10-18T14:14:53.490Z,85.64
2022-10-18T14:17:48.778Z,84.75
2022-10-18T14:20:18.848Z,84.37
2022-10-18T14:23:05.863Z,83.80
2022-10-18T14:25:37.266Z,85.88
2022-10-18T14:28:27.344Z,88.15
2022-10-18T14:31:13.599Z,87.95
2022-10-18T14:33:47.484Z,91.15
2022-10-18T14:36:19.827Z,88.06
2022-10-18T14:38:56.565Z,88.51
2022-10-18T14:41:34.815Z,89.02
2022-10-18T14:44:16.713Z,88.95
2022-10-18T14:46:45.584Z,88.78
2022-10-18T14:49:14.498Z,89.57
2022-10-18T14:51:43.574Z,88.82
2022-10-18T14:54:25.008Z,90.57
2022-10-18T14:56:54.706Z,88.09
2022-10-18T14:59:27.485Z,85.05
2022-10-18T15:02:05.209Z,83.92
2022-10-18T15:04:33.388Z,84.94
2022-10-18T15:07:06.070Z,84.31
2022-10-18T15:09:36.129Z,87.06
2022-10-18T15:12:06.187Z,87.81
2022-10-18T15:14:35.018Z,87.81
2022-10-18T15:17:07.752Z,88.37
2022-10-18T15:19:39.485Z,88.44
2022-10-18T15:25:16.197Z,90.05
2022-10-18T15:28:03.270Z,90.52
2022-10-18T15:30:39.085Z,91.54
2022-10-18T15:33:10.587Z,91.91
2022-10-18T15:35:38.861Z,91.44
2022-10-18T15:38:14.395Z,92.11
2022-10-18T15:40:42.126Z,91.77
2022-10-18T15:43:23.693Z,92.60
2022-10-18T15:45:51.698Z,93.17
2022-10-18T15:48:25.957Z,93.48
2022-10-18T15:50:57.421Z,95.06
2022-10-18T15:53:34.508Z,95.80
2022-10-18T15:56:05.084Z,95.82
2022-10-18T15:58:49.055Z,98.41
2022-10-18T16:01:33.429Z,99.94
2022-10-18T16:04:00.892Z,100.00
2022-10-18T16:06:27.619Z,100.00
2022-10-18T16:08:54.397Z,100.00
2022-10-18T16:11:23.938Z,100.00
2022-10-18T16:13:55.104Z,100.00
2022-10-18T16:16:26.723Z,100.00
2022-10-18T16:18:54.222Z,100.00
2022-10-18T16:21:29.934Z,100.00
2022-10-18T16:23:56.801Z,100.00
2022-10-18T16:26:24.702Z,100.00
2022-10-18T16:28:52.114Z,100.00
2022-10-18T16:31:30.492Z,100.00
2022-10-18T16:33:57.847Z,100.00
2022-10-18T16:36:30.114Z,100.00
2022-10-18T16:39:03.213Z,100.00
2022-10-18T16:41:29.863Z,100.00
2022-10-18T16:43:56.485Z,100.00
2022-10-18T16:46:29.224Z,100.00
2022-10-18T16:48:56.694Z,100.00
2022-10-18T16:51:23.652Z,100.00
2022-10-18T16:53:50.408Z,100.00
2022-10-18T16:56:20.861Z,100.00
2022-10-18T16:58:48.793Z,100.00
2022-10-18T17:01:18.172Z,100.00
2022-10-18T17:03:45.182Z,100.00
2022-10-18T17:06:17.887Z,100.00
2022-10-18T17:08:44.614Z,100.00
2022-10-18T17:11:12.791Z,100.00
2022-10-18T17:13:39.472Z,100.00
2022-10-18T17:16:07.446Z,100.00
2022-10-18T17:18:34.037Z,100.00
2022-10-18T17:21:03.265Z,100.00
2022-10-18T17:23:30.399Z,100.00
2022-10-18T17:26:05.372Z,100.00
2022-10-18T17:28:35.580Z,100.00
2022-10-18T17:31:02.197Z,100.00
2022-10-18T17:33:28.759Z,100.00
2022-10-18T17:35:55.398Z,100.00
2022-10-18T17:38:21.942Z,100.00
2022-10-18T17:40:48.512Z,100.00
2022-10-18T17:43:15.148Z,100.00
2022-10-18T17:45:48.609Z,100.00
2022-10-18T17:48:17.203Z,100.00
2022-10-18T17:50:43.782Z,100.00
2022-10-18T17:53:11.980Z,100.00
2022-10-18T17:55:39.333Z,100.00
2022-10-18T17:58:06.174Z,100.00
2022-10-18T18:00:32.854Z,100.00
2022-10-18T18:03:00.263Z,100.00
2022-10-18T18:05:31.535Z,100.00
2022-10-18T18:08:02.749Z,100.00
2022-10-18T18:10:33.330Z,100.00
2022-10-18T18:13:00.303Z,100.00
2022-10-18T18:15:27.042Z,100.00
2022-10-18T18:17:57.100Z,100.00
2022-10-18T18:20:24.620Z,100.00
2022-10-18T18:22:51.965Z,100.00
2022-10-18T18:25:18.818Z,100.00
2022-10-18T18:27:45.644Z,100.00
2022-10-18T18:30:13.332Z,100.00
2022-10-18T18:32:40.555Z,100.00
2022-10-18T18:35:08.160Z,100.00
2022-10-18T18:37:35.423Z,100.00
2022-10-18T18:40:02.612Z,100.00
2022-10-18T18:42:30.094Z,100.00
2022-10-18T18:44:57.377Z,100.00
2022-10-18T18:47:24.595Z,100.00
2022-10-18T18:49:51.913Z,100.00
2022-10-18T18:52:18.971Z,100.00
2022-10-18T18:54:45.789Z,100.00
2022-10-18T18:57:12.352Z,100.00
2022-10-18T18:59:39.109Z,100.00
2022-10-18T19:02:05.658Z,100.00
2022-10-18T19:04:32.877Z,100.00
2022-10-18T19:06:59.492Z,100.00
2022-10-18T19:09:27.401Z,100.00
2022-10-18T19:11:56.014Z,100.00
2022-10-18T19:14:25.388Z,100.00
2022-10-18T19:16:54.889Z,100.00
2022-10-18T19:19:31.818Z,100.00
2022-10-18T19:22:01.464Z,100.00
2022-10-18T19:24:33.115Z,100.00
2022-10-18T19:27:05.832Z,100.00
2022-10-18T19:29:35.817Z,100.00
2022-10-18T19:32:05.674Z,100.00
2022-10-18T19:34:34.673Z,100.00
2022-10-18T19:37:02.188Z,100.00
2022-10-18T19:39:32.196Z,100.00
2022-10-18T19:42:03.321Z,100.00
2022-10-18T19:44:32.413Z,100.00
2022-10-18T19:47:00.142Z,100.00
2022-10-18T19:49:28.809Z,100.00
2022-10-18T19:51:56.548Z,100.00
2022-10-18T19:54:23.432Z,100.00
2022-10-18T19:56:50.155Z,100.00
2022-10-18T19:59:17.540Z,100.00
2022-10-18T20:01:45.180Z,100.00
2022-10-18T20:04:12.903Z,100.00
2022-10-18T20:06:40.303Z,100.00
2022-10-18T20:09:08.734Z,100.00
2022-10-18T20:11:36.066Z,100.00
2022-10-18T20:14:05.329Z,100.00
2022-10-18T20:16:33.316Z,100.00
2022-10-18T20:19:02.306Z,100.00
2022-10-18T20:21:31.454Z,100.00
2022-10-18T20:23:58.014Z,100.00
2022-10-18T20:26:25.719Z,100.00
2022-10-18T20:28:58.736Z,100.00
2022-10-18T20:31:30.752Z,100.00
2022-10-18T20:34:02.597Z,100.00
2022-10-18T20:36:31.276Z,100.00
2022-10-18T20:38:58.457Z,100.00
2022-10-18T20:41:27.922Z,100.00
2022-10-18T20:43:59.790Z,100.00
2022-10-18T20:46:29.584Z,100.00
2022-10-18T20:48:56.253Z,100.00
2022-10-18T20:51:23.259Z,100.00
2022-10-18T20:53:50.610Z,100.00
2022-10-18T20:56:27.734Z,100.00
2022-10-18T20:58:56.142Z,100.00
2022-10-18T21:01:25.848Z,100.00
2022-10-18T21:03:54.326Z,100.00
2022-10-18T21:06:26.556Z,100.00
2022-10-18T21:09:05.706Z,100.00
2022-10-18T21:11:36.495Z,100.00
2022-10-18T21:14:04.057Z,100.00
2022-10-18T21:16:35.812Z,100.00
2022-10-18T21:19:07.911Z,100.00
2022-10-18T21:21:35.243Z,100.00
2022-10-18T21:24:05.387Z,100.00
2022-10-18T21:26:34.910Z,100.00
2022-10-18T21:29:01.814Z,100.00
2022-10-18T21:31:30.979Z,100.00
2022-10-18T21:34:04.368Z,100.00
2022-10-18T21:36:33.467Z,100.00
2022-10-18T21:39:00.130Z,100.00
2022-10-18T21:41:26.778Z,100.00
2022-10-18T21:43:54.795Z,100.00
2022-10-18T21:46:23.062Z,100.00
2022-10-18T21:48:51.736Z,100.00
2022-10-18T21:51:20.870Z,100.00
2022-10-18T21:53:50.502Z,100.00
2022-10-18T21:56:19.808Z,100.00
2022-10-18T21:58:46.823Z,100.00
2022-10-18T22:01:25.104Z,100.00
2022-10-18T22:03:53.877Z,100.00
2022-10-18T22:06:21.656Z,100.00
2022-10-18T22:08:56.766Z,100.00
2022-10-18T22:11:26.677Z,100.00
2022-10-18T22:13:53.975Z,100.00
2022-10-18T22:16:20.817Z,100.00
2022-10-18T22:18:49.224Z,100.00
2022-10-18T22:21:17.492Z,100.00
2022-10-18T22:23:49.592Z,100.00
2022-10-18T22:26:23.547Z,100.00
2022-10-18T22:29:02.121Z,100.00
2022-10-18T22:31:32.233Z,100.00
2022-10-18T22:34:01.261Z,100.00
2022-10-18T22:36:27.884Z,100.00
2022-10-18T22:38:54.473Z,100.00
2022-10-18T22:41:21.615Z,100.00
2022-10-18T22:43:50.462Z,100.00
2022-10-18T22:46:17.068Z,100.00
2022-10-18T22:48:44.826Z,100.00
2022-10-18T22:51:12.029Z,100.00
2022-10-18T22:53:40.315Z,100.00
2022-10-18T22:56:08.582Z,100.00
2022-10-18T22:58:35.230Z,100.00
2022-10-18T23:01:07.458Z,100.00
2022-10-18T23:03:34.579Z,100.00
2022-10-18T23:06:01.264Z,100.00
2022-10-18T23:08:28.477Z,100.00
2022-10-18T23:10:58.149Z,100.00
2022-10-18T23:13:26.517Z,100.00
2022-10-18T23:15:53.307Z,100.00
2022-10-18T23:18:19.909Z,100.00
2022-10-18T23:20:46.576Z,100.00
2022-10-18T23:23:13.775Z,100.00
2022-10-18T23:25:40.580Z,100.00
2022-10-18T23:28:07.555Z,100.00
2022-10-18T23:30:34.311Z,100.00
2022-10-18T23:33:01.007Z,100.00
2022-10-18T23:35:29.327Z,100.00
2022-10-18T23:37:55.905Z,100.00
2022-10-18T23:40:22.535Z,100.00
2022-10-18T23:42:49.141Z,100.00
2022-10-18T23:45:15.773Z,100.00
2022-10-18T23:47:42.340Z,100.00
2022-10-18T23:50:09.210Z,100.00
2022-10-18T23:52:35.787Z,100.00
2022-10-18T23:55:02.577Z,100.00
2022-10-18T23:57:29.408Z,100.00
2022-10-18T23:59:56.040Z,100.00
